sensor_id;sensor_type;location;lat;lon;timestamp;temperature;humidity
1468;DHT22;727;48.892;9.544;2024-01-10T00:01:04;-3.50;95.10
1468;DHT22;727;48.892;9.544;2024-01-10T00:03:31;-3.60;95.10
1468;DHT22;727;48.892;9.544;2024-01-10T00:05:59;-3.60;95.30
1468;DHT22;727;48.892;9.544;2024-01-10T00:08:25;-3.60;95.50
1468;DHT22;727;48.892;9.544;2024-01-10T00:10:52;-3.60;95.60
1468;DHT22;727;48.892;9.544;2024-01-10T00:13:20;-3.70;95.60
1468;DHT22;727;48.892;9.544;2024-01-10T00:15:47;-3.70;95.80
1468;DHT22;727;48.892;9.544;2024-01-10T00:18:14;-3.70;95.90
1468;DHT22;727;48.892;9.544;2024-01-10T00:20:40;-3.60;96.10
1468;DHT22;727;48.892;9.544;2024-01-10T00:23:09;-3.50;95.60
1468;DHT22;727;48.892;9.544;2024-01-10T00:25:35;-3.40;95.20
1468;DHT22;727;48.892;9.544;2024-01-10T00:28:02;-3.30;94.40
1468;DHT22;727;48.892;9.544;2024-01-10T00:30:30;-3.20;93.60
1468;DHT22;727;48.892;9.544;2024-01-10T00:32:57;-3.10;93.40
1468;DHT22;727;48.892;9.544;2024-01-10T00:35:24;-3.20;92.90
1468;DHT22;727;48.892;9.544;2024-01-10T00:37:50;-3.20;93.00
1468;DHT22;727;48.892;9.544;2024-01-10T00:40:18;-3.10;92.80
1468;DHT22;727;48.892;9.544;2024-01-10T00:42:45;-3.10;92.80
1468;DHT22;727;48.892;9.544;2024-01-10T00:45:12;-3.00;92.70
1468;DHT22;727;48.892;9.544;2024-01-10T00:47:39;-2.90;92.60
1468;DHT22;727;48.892;9.544;2024-01-10T00:50:06;-3.00;92.60
1468;DHT22;727;48.892;9.544;2024-01-10T00:52:33;-3.10;92.70
1468;DHT22;727;48.892;9.544;2024-01-10T00:55:00;-3.10;92.90
1468;DHT22;727;48.892;9.544;2024-01-10T00:57:28;-3.20;93.50
1468;DHT22;727;48.892;9.544;2024-01-10T00:59:55;-3.30;94.10
1468;DHT22;727;48.892;9.544;2024-01-10T01:02:21;-3.20;94.40
1468;DHT22;727;48.892;9.544;2024-01-10T01:04:48;-3.20;94.60
1468;DHT22;727;48.892;9.544;2024-01-10T01:07:15;-3.10;94.30
1468;DHT22;727;48.892;9.544;2024-01-10T01:09:41;-3.00;93.90
1468;DHT22;727;48.892;9.544;2024-01-10T01:12:08;-3.10;93.50
1468;DHT22;727;48.892;9.544;2024-01-10T01:14:37;-2.90;93.40
1468;DHT22;727;48.892;9.544;2024-01-10T01:17:03;-3.00;93.00
1468;DHT22;727;48.892;9.544;2024-01-10T01:19:30;-3.00;93.10
1468;DHT22;727;48.892;9.544;2024-01-10T01:21:57;-3.00;93.30
1468;DHT22;727;48.892;9.544;2024-01-10T01:24:23;-3.00;93.00
1468;DHT22;727;48.892;9.544;2024-01-10T01:26:50;-3.00;93.00
1468;DHT22;727;48.892;9.544;2024-01-10T01:29:19;-3.10;93.10
1468;DHT22;727;48.892;9.544;2024-01-10T01:31:47;-3.10;93.20
1468;DHT22;727;48.892;9.544;2024-01-10T01:34:14;-3.10;93.30
1468;DHT22;727;48.892;9.544;2024-01-10T01:36:41;-3.10;93.80
1468;DHT22;727;48.892;9.544;2024-01-10T01:39:08;-3.20;94.00
1468;DHT22;727;48.892;9.544;2024-01-10T01:41:34;-3.10;94.20
1468;DHT22;727;48.892;9.544;2024-01-10T01:44:01;-3.10;94.10
1468;DHT22;727;48.892;9.544;2024-01-10T01:46:28;-3.20;94.10
1468;DHT22;727;48.892;9.544;2024-01-10T01:48:57;-3.20;94.30
1468;DHT22;727;48.892;9.544;2024-01-10T01:51:23;-3.20;94.50
1468;DHT22;727;48.892;9.544;2024-01-10T01:53:52;-3.10;93.90
1468;DHT22;727;48.892;9.544;2024-01-10T01:56:20;-3.00;93.70
1468;DHT22;727;48.892;9.544;2024-01-10T01:58:48;-3.00;93.60
1468;DHT22;727;48.892;9.544;2024-01-10T02:01:16;-3.00;93.50
1468;DHT22;727;48.892;9.544;2024-01-10T02:03:45;-3.00;93.40
1468;DHT22;727;48.892;9.544;2024-01-10T02:06:13;-3.00;93.30
1468;DHT22;727;48.892;9.544;2024-01-10T02:08:40;-3.00;93.40
1468;DHT22;727;48.892;9.544;2024-01-10T02:11:07;-3.10;93.30
1468;DHT22;727;48.892;9.544;2024-01-10T02:13:34;-3.10;93.20
1468;DHT22;727;48.892;9.544;2024-01-10T02:16:02;-3.00;93.20
1468;DHT22;727;48.892;9.544;2024-01-10T02:18:30;-3.00;93.40
1468;DHT22;727;48.892;9.544;2024-01-10T02:20:57;-2.90;93.30
1468;DHT22;727;48.892;9.544;2024-01-10T02:23:25;-2.90;93.00
1468;DHT22;727;48.892;9.544;2024-01-10T02:25:53;-3.00;92.90
1468;DHT22;727;48.892;9.544;2024-01-10T02:28:20;-3.00;93.00
1468;DHT22;727;48.892;9.544;2024-01-10T02:30:48;-3.00;93.10
1468;DHT22;727;48.892;9.544;2024-01-10T02:33:15;-3.00;93.10
1468;DHT22;727;48.892;9.544;2024-01-10T02:35:42;-3.00;93.20
1468;DHT22;727;48.892;9.544;2024-01-10T02:38:08;-3.00;93.20
1468;DHT22;727;48.892;9.544;2024-01-10T02:40:35;-3.10;93.20
1468;DHT22;727;48.892;9.544;2024-01-10T02:43:03;-3.10;93.10
1468;DHT22;727;48.892;9.544;2024-01-10T02:45:32;-3.10;93.10
1468;DHT22;727;48.892;9.544;2024-01-10T02:47:59;-3.10;93.10
1468;DHT22;727;48.892;9.544;2024-01-10T02:50:25;-3.10;93.40
1468;DHT22;727;48.892;9.544;2024-01-10T02:52:52;-3.00;93.30
1468;DHT22;727;48.892;9.544;2024-01-10T02:55:19;-3.00;93.10
1468;DHT22;727;48.892;9.544;2024-01-10T02:57:46;-3.10;93.10
1468;DHT22;727;48.892;9.544;2024-01-10T03:00:14;-3.00;93.40
1468;DHT22;727;48.892;9.544;2024-01-10T03:02:41;-3.00;93.50
1468;DHT22;727;48.892;9.544;2024-01-10T03:05:08;-3.10;93.30
1468;DHT22;727;48.892;9.544;2024-01-10T03:07:35;-3.20;93.30
1468;DHT22;727;48.892;9.544;2024-01-10T03:10:01;-3.20;93.40
1468;DHT22;727;48.892;9.544;2024-01-10T03:12:29;-3.20;93.50
1468;DHT22;727;48.892;9.544;2024-01-10T03:14:56;-3.20;93.50
1468;DHT22;727;48.892;9.544;2024-01-10T03:17:24;-3.20;93.60
1468;DHT22;727;48.892;9.544;2024-01-10T03:19:50;-3.20;93.70
1468;DHT22;727;48.892;9.544;2024-01-10T03:22:17;-3.20;93.60
1468;DHT22;727;48.892;9.544;2024-01-10T03:24:44;-3.20;93.70
1468;DHT22;727;48.892;9.544;2024-01-10T03:27:15;-3.20;93.60
1468;DHT22;727;48.892;9.544;2024-01-10T03:29:42;-3.30;93.60
1468;DHT22;727;48.892;9.544;2024-01-10T03:32:09;-3.20;93.80
1468;DHT22;727;48.892;9.544;2024-01-10T03:34:37;-3.20;93.80
1468;DHT22;727;48.892;9.544;2024-01-10T03:37:04;-3.30;93.80
1468;DHT22;727;48.892;9.544;2024-01-10T03:39:31;-3.30;94.00
1468;DHT22;727;48.892;9.544;2024-01-10T03:41:57;-3.30;94.30
1468;DHT22;727;48.892;9.544;2024-01-10T03:44:26;-3.20;94.50
1468;DHT22;727;48.892;9.544;2024-01-10T03:46:53;-3.20;94.60
1468;DHT22;727;48.892;9.544;2024-01-10T03:49:20;-3.20;94.60
1468;DHT22;727;48.892;9.544;2024-01-10T03:51:48;-3.10;94.60
1468;DHT22;727;48.892;9.544;2024-01-10T03:54:14;-3.00;94.50
1468;DHT22;727;48.892;9.544;2024-01-10T03:56:41;-3.10;94.30
1468;DHT22;727;48.892;9.544;2024-01-10T03:59:08;-3.00;94.20
1468;DHT22;727;48.892;9.544;2024-01-10T04:01:35;-3.10;94.20
1468;DHT22;727;48.892;9.544;2024-01-10T04:04:04;-3.10;94.20
1468;DHT22;727;48.892;9.544;2024-01-10T04:06:31;-3.10;94.20
1468;DHT22;727;48.892;9.544;2024-01-10T04:09:02;-3.10;94.30
1468;DHT22;727;48.892;9.544;2024-01-10T04:11:29;-2.90;94.30
1468;DHT22;727;48.892;9.544;2024-01-10T04:13:55;-2.90;94.00
1468;DHT22;727;48.892;9.544;2024-01-10T04:16:22;-2.90;94.00
1468;DHT22;727;48.892;9.544;2024-01-10T04:18:49;-2.90;93.90
1468;DHT22;727;48.892;9.544;2024-01-10T04:21:15;-2.90;93.80
1468;DHT22;727;48.892;9.544;2024-01-10T04:23:43;-2.90;93.80
1468;DHT22;727;48.892;9.544;2024-01-10T04:26:11;-2.80;93.80
1468;DHT22;727;48.892;9.544;2024-01-10T04:28:37;-2.80;93.70
1468;DHT22;727;48.892;9.544;2024-01-10T04:31:06;-2.80;93.80
1468;DHT22;727;48.892;9.544;2024-01-10T04:33:33;-2.80;93.70
1468;DHT22;727;48.892;9.544;2024-01-10T04:36:00;-2.80;93.80
1468;DHT22;727;48.892;9.544;2024-01-10T04:38:26;-2.80;93.70
1468;DHT22;727;48.892;9.544;2024-01-10T04:40:53;-2.80;94.00
1468;DHT22;727;48.892;9.544;2024-01-10T04:43:21;-2.80;94.10
1468;DHT22;727;48.892;9.544;2024-01-10T04:45:48;-2.80;94.10
1468;DHT22;727;48.892;9.544;2024-01-10T04:48:14;-2.90;94.20
1468;DHT22;727;48.892;9.544;2024-01-10T04:50:41;-2.80;94.50
1468;DHT22;727;48.892;9.544;2024-01-10T04:53:08;-2.80;94.70
1468;DHT22;727;48.892;9.544;2024-01-10T04:55:35;-2.70;94.50
1468;DHT22;727;48.892;9.544;2024-01-10T04:58:01;-2.80;94.50
1468;DHT22;727;48.892;9.544;2024-01-10T05:00:29;-2.80;94.60
1468;DHT22;727;48.892;9.544;2024-01-10T05:02:56;-2.80;94.60
1468;DHT22;727;48.892;9.544;2024-01-10T05:05:23;-2.80;94.80
1468;DHT22;727;48.892;9.544;2024-01-10T05:07:50;-2.70;94.80
1468;DHT22;727;48.892;9.544;2024-01-10T05:10:17;-2.70;94.60
1468;DHT22;727;48.892;9.544;2024-01-10T05:12:43;-2.70;94.50
1468;DHT22;727;48.892;9.544;2024-01-10T05:15:10;-2.60;94.50
1468;DHT22;727;48.892;9.544;2024-01-10T05:17:38;-2.70;94.50
1468;DHT22;727;48.892;9.544;2024-01-10T05:20:06;-2.70;94.50
1468;DHT22;727;48.892;9.544;2024-01-10T05:22:34;-2.60;94.80
1468;DHT22;727;48.892;9.544;2024-01-10T05:25:01;-2.60;94.70
1468;DHT22;727;48.892;9.544;2024-01-10T05:27:29;-2.50;94.60
1468;DHT22;727;48.892;9.544;2024-01-10T05:29:56;-2.50;94.50
1468;DHT22;727;48.892;9.544;2024-01-10T05:32:22;-2.60;94.50
1468;DHT22;727;48.892;9.544;2024-01-10T05:34:50;-2.60;94.50
1468;DHT22;727;48.892;9.544;2024-01-10T05:37:17;-2.60;94.50
1468;DHT22;727;48.892;9.544;2024-01-10T05:39:44;-2.50;94.60
1468;DHT22;727;48.892;9.544;2024-01-10T05:42:10;-2.50;94.60
1468;DHT22;727;48.892;9.544;2024-01-10T05:44:37;-2.50;94.50
1468;DHT22;727;48.892;9.544;2024-01-10T05:47:05;-2.50;94.30
1468;DHT22;727;48.892;9.544;2024-01-10T05:49:32;-2.50;94.30
1468;DHT22;727;48.892;9.544;2024-01-10T05:52:00;-2.40;94.40
1468;DHT22;727;48.892;9.544;2024-01-10T05:54:27;-2.40;94.30
1468;DHT22;727;48.892;9.544;2024-01-10T05:56:54;-2.40;94.30
1468;DHT22;727;48.892;9.544;2024-01-10T05:59:20;-2.50;94.40
1468;DHT22;727;48.892;9.544;2024-01-10T06:01:47;-2.50;94.50
1468;DHT22;727;48.892;9.544;2024-01-10T06:04:14;-2.40;94.60
1468;DHT22;727;48.892;9.544;2024-01-10T06:06:40;-2.40;94.60
1468;DHT22;727;48.892;9.544;2024-01-10T06:09:08;-2.40;94.60
1468;DHT22;727;48.892;9.544;2024-01-10T06:11:40;-2.40;94.60
1468;DHT22;727;48.892;9.544;2024-01-10T06:14:07;-2.40;94.50
1468;DHT22;727;48.892;9.544;2024-01-10T06:16:34;-2.40;94.50
1468;DHT22;727;48.892;9.544;2024-01-10T06:19:01;-2.30;94.50
1468;DHT22;727;48.892;9.544;2024-01-10T06:21:27;-2.30;94.40
1468;DHT22;727;48.892;9.544;2024-01-10T06:23:54;-2.30;94.40
1468;DHT22;727;48.892;9.544;2024-01-10T06:26:22;-2.30;94.40
1468;DHT22;727;48.892;9.544;2024-01-10T06:28:49;-2.30;94.50
1468;DHT22;727;48.892;9.544;2024-01-10T06:31:16;-2.30;94.60
1468;DHT22;727;48.892;9.544;2024-01-10T06:33:42;-2.30;94.40
1468;DHT22;727;48.892;9.544;2024-01-10T06:36:09;-2.30;94.40
1468;DHT22;727;48.892;9.544;2024-01-10T06:38:36;-2.30;94.50
1468;DHT22;727;48.892;9.544;2024-01-10T06:41:07;-2.30;94.60
1468;DHT22;727;48.892;9.544;2024-01-10T06:43:36;-2.30;94.60
1468;DHT22;727;48.892;9.544;2024-01-10T06:46:02;-2.20;94.70
1468;DHT22;727;48.892;9.544;2024-01-10T06:48:29;-2.30;94.70
1468;DHT22;727;48.892;9.544;2024-01-10T06:50:57;-2.30;94.70
1468;DHT22;727;48.892;9.544;2024-01-10T06:53:23;-2.30;94.70
1468;DHT22;727;48.892;9.544;2024-01-10T06:55:50;-2.30;94.90
1468;DHT22;727;48.892;9.544;2024-01-10T06:58:17;-2.30;95.00
1468;DHT22;727;48.892;9.544;2024-01-10T07:00:48;-2.40;94.90
1468;DHT22;727;48.892;9.544;2024-01-10T07:03:16;-2.30;95.10
1468;DHT22;727;48.892;9.544;2024-01-10T07:05:43;-2.30;95.20
1468;DHT22;727;48.892;9.544;2024-01-10T07:08:10;-2.40;95.30
1468;DHT22;727;48.892;9.544;2024-01-10T07:10:39;-2.40;95.60
1468;DHT22;727;48.892;9.544;2024-01-10T07:13:06;-2.50;95.50
1468;DHT22;727;48.892;9.544;2024-01-10T07:15:33;-2.50;95.60
1468;DHT22;727;48.892;9.544;2024-01-10T07:18:01;-2.50;95.90
1468;DHT22;727;48.892;9.544;2024-01-10T07:20:28;-2.50;96.20
1468;DHT22;727;48.892;9.544;2024-01-10T07:22:54;-2.50;96.40
1468;DHT22;727;48.892;9.544;2024-01-10T07:25:21;-2.40;96.40
1468;DHT22;727;48.892;9.544;2024-01-10T07:27:50;-2.40;96.60
1468;DHT22;727;48.892;9.544;2024-01-10T07:30:17;-2.30;96.80
1468;DHT22;727;48.892;9.544;2024-01-10T07:32:45;-2.30;97.00
1468;DHT22;727;48.892;9.544;2024-01-10T07:35:14;-2.10;97.30
1468;DHT22;727;48.892;9.544;2024-01-10T07:37:41;-2.00;96.70
1468;DHT22;727;48.892;9.544;2024-01-10T07:40:09;-2.00;96.00
1468;DHT22;727;48.892;9.544;2024-01-10T07:42:37;-2.00;95.70
1468;DHT22;727;48.892;9.544;2024-01-10T07:45:06;-2.00;95.40
1468;DHT22;727;48.892;9.544;2024-01-10T07:47:34;-2.00;95.20
1468;DHT22;727;48.892;9.544;2024-01-10T07:50:03;-2.00;95.10
1468;DHT22;727;48.892;9.544;2024-01-10T07:52:32;-2.00;95.00
1468;DHT22;727;48.892;9.544;2024-01-10T07:54:58;-2.00;94.90
1468;DHT22;727;48.892;9.544;2024-01-10T07:57:26;-1.90;95.00
1468;DHT22;727;48.892;9.544;2024-01-10T07:59:52;-1.90;95.00
1468;DHT22;727;48.892;9.544;2024-01-10T08:02:19;-1.80;95.00
1468;DHT22;727;48.892;9.544;2024-01-10T08:04:46;-1.80;94.80
1468;DHT22;727;48.892;9.544;2024-01-10T08:07:13;-1.80;94.80
1468;DHT22;727;48.892;9.544;2024-01-10T08:09:41;-1.80;94.70
1468;DHT22;727;48.892;9.544;2024-01-10T08:12:08;-1.80;94.80
1468;DHT22;727;48.892;9.544;2024-01-10T08:14:34;-1.80;94.80
1468;DHT22;727;48.892;9.544;2024-01-10T08:17:03;-1.80;94.80
1468;DHT22;727;48.892;9.544;2024-01-10T08:19:30;-1.70;94.90
1468;DHT22;727;48.892;9.544;2024-01-10T08:21:57;-1.70;94.70
1468;DHT22;727;48.892;9.544;2024-01-10T08:24:24;-1.60;94.50
1468;DHT22;727;48.892;9.544;2024-01-10T08:26:53;-1.40;94.80
1468;DHT22;727;48.892;9.544;2024-01-10T08:29:20;-1.40;95.00
1468;DHT22;727;48.892;9.544;2024-01-10T08:31:47;-1.30;95.20
1468;DHT22;727;48.892;9.544;2024-01-10T08:34:14;-1.00;95.20
1468;DHT22;727;48.892;9.544;2024-01-10T08:36:41;-0.90;95.00
1468;DHT22;727;48.892;9.544;2024-01-10T08:39:07;-0.80;95.30
1468;DHT22;727;48.892;9.544;2024-01-10T08:41:36;-0.60;94.90
1468;DHT22;727;48.892;9.544;2024-01-10T08:44:09;-0.40;94.80
1468;DHT22;727;48.892;9.544;2024-01-10T08:46:36;0.20;94.60
1468;DHT22;727;48.892;9.544;2024-01-10T08:49:03;1.10;93.30
1468;DHT22;727;48.892;9.544;2024-01-10T08:51:30;1.90;91.90
1468;DHT22;727;48.892;9.544;2024-01-10T08:53:57;2.30;90.20
1468;DHT22;727;48.892;9.544;2024-01-10T08:56:23;2.30;87.40
1468;DHT22;727;48.892;9.544;2024-01-10T08:58:52;2.30;86.60
1468;DHT22;727;48.892;9.544;2024-01-10T09:01:20;3.00;86.50
1468;DHT22;727;48.892;9.544;2024-01-10T09:03:48;3.90;84.90
1468;DHT22;727;48.892;9.544;2024-01-10T09:06:15;5.10;80.90
1468;DHT22;727;48.892;9.544;2024-01-10T09:08:42;5.90;76.20
1468;DHT22;727;48.892;9.544;2024-01-10T09:11:09;6.50;72.40
1468;DHT22;727;48.892;9.544;2024-01-10T09:13:36;7.40;69.80
1468;DHT22;727;48.892;9.544;2024-01-10T09:16:05;7.80;67.00
1468;DHT22;727;48.892;9.544;2024-01-10T09:18:33;8.10;63.40
1468;DHT22;727;48.892;9.544;2024-01-10T09:21:00;8.90;61.10
1468;DHT22;727;48.892;9.544;2024-01-10T09:23:27;9.10;58.60
1468;DHT22;727;48.892;9.544;2024-01-10T09:25:54;9.10;57.90
1468;DHT22;727;48.892;9.544;2024-01-10T09:28:21;9.30;57.30
1468;DHT22;727;48.892;9.544;2024-01-10T09:30:47;10.10;55.30
1468;DHT22;727;48.892;9.544;2024-01-10T09:33:14;10.00;54.30
1468;DHT22;727;48.892;9.544;2024-01-10T09:35:42;10.40;53.50
1468;DHT22;727;48.892;9.544;2024-01-10T09:38:09;10.00;52.70
1468;DHT22;727;48.892;9.544;2024-01-10T09:40:36;9.80;53.90
1468;DHT22;727;48.892;9.544;2024-01-10T09:43:04;9.70;53.20
1468;DHT22;727;48.892;9.544;2024-01-10T09:45:35;9.80;53.60
1468;DHT22;727;48.892;9.544;2024-01-10T09:48:02;9.80;54.00
1468;DHT22;727;48.892;9.544;2024-01-10T09:50:29;9.70;53.30
1468;DHT22;727;48.892;9.544;2024-01-10T09:53:04;10.00;51.80
1468;DHT22;727;48.892;9.544;2024-01-10T09:55:34;10.30;51.60
1468;DHT22;727;48.892;9.544;2024-01-10T09:58:03;10.70;51.30
1468;DHT22;727;48.892;9.544;2024-01-10T10:00:34;9.90;51.40
1468;DHT22;727;48.892;9.544;2024-01-10T10:03:04;9.30;52.20
1468;DHT22;727;48.892;9.544;2024-01-10T10:05:32;9.30;53.10
1468;DHT22;727;48.892;9.544;2024-01-10T10:08:01;8.20;53.30
1468;DHT22;727;48.892;9.544;2024-01-10T10:10:29;7.90;54.80
1468;DHT22;727;48.892;9.544;2024-01-10T10:12:57;8.50;55.10
1468;DHT22;727;48.892;9.544;2024-01-10T10:15:27;8.30;54.40
1468;DHT22;727;48.892;9.544;2024-01-10T10:17:55;7.80;54.80
1468;DHT22;727;48.892;9.544;2024-01-10T10:20:24;8.00;55.50
1468;DHT22;727;48.892;9.544;2024-01-10T10:22:58;8.10;55.90
1468;DHT22;727;48.892;9.544;2024-01-10T10:25:29;9.10;55.30
1468;DHT22;727;48.892;9.544;2024-01-10T10:27:57;9.70;54.10
1468;DHT22;727;48.892;9.544;2024-01-10T10:30:25;10.00;52.10
1468;DHT22;727;48.892;9.544;2024-01-10T10:32:52;9.50;52.50
1468;DHT22;727;48.892;9.544;2024-01-10T10:35:19;9.30;52.80
1468;DHT22;727;48.892;9.544;2024-01-10T10:37:49;9.00;53.30
1468;DHT22;727;48.892;9.544;2024-01-10T10:40:16;8.70;54.10
1468;DHT22;727;48.892;9.544;2024-01-10T10:42:48;9.40;53.90
1468;DHT22;727;48.892;9.544;2024-01-10T10:45:17;9.80;53.40
1468;DHT22;727;48.892;9.544;2024-01-10T10:47:55;10.10;51.90
1468;DHT22;727;48.892;9.544;2024-01-10T10:50:23;10.10;52.30
1468;DHT22;727;48.892;9.544;2024-01-10T10:52:52;10.60;50.80
1468;DHT22;727;48.892;9.544;2024-01-10T10:55:19;10.40;50.10
1468;DHT22;727;48.892;9.544;2024-01-10T10:57:49;10.30;50.60
1468;DHT22;727;48.892;9.544;2024-01-10T11:00:19;10.00;51.30
1468;DHT22;727;48.892;9.544;2024-01-10T11:02:47;10.20;51.10
1468;DHT22;727;48.892;9.544;2024-01-10T11:05:15;10.20;50.60
1468;DHT22;727;48.892;9.544;2024-01-10T11:07:43;10.60;50.40
1468;DHT22;727;48.892;9.544;2024-01-10T11:10:12;11.00;49.60
1468;DHT22;727;48.892;9.544;2024-01-10T11:13:03;11.40;49.00
1468;DHT22;727;48.892;9.544;2024-01-10T11:15:47;11.00;48.80
1468;DHT22;727;48.892;9.544;2024-01-10T11:18:33;11.30;48.80
1468;DHT22;727;48.892;9.544;2024-01-10T11:21:18;11.60;48.40
1468;DHT22;727;48.892;9.544;2024-01-10T11:23:51;11.30;48.20
1468;DHT22;727;48.892;9.544;2024-01-10T11:26:19;11.30;48.50
1468;DHT22;727;48.892;9.544;2024-01-10T11:28:48;11.30;48.40
1468;DHT22;727;48.892;9.544;2024-01-10T11:31:27;11.60;48.60
1468;DHT22;727;48.892;9.544;2024-01-10T11:33:56;11.90;48.30
1468;DHT22;727;48.892;9.544;2024-01-10T11:36:23;12.00;47.80
1468;DHT22;727;48.892;9.544;2024-01-10T11:38:54;11.60;47.60
1468;DHT22;727;48.892;9.544;2024-01-10T11:41:25;12.00;47.60
1468;DHT22;727;48.892;9.544;2024-01-10T11:44:26;11.30;47.80
1468;DHT22;727;48.892;9.544;2024-01-10T11:46:54;10.70;49.10
1468;DHT22;727;48.892;9.544;2024-01-10T11:49:23;10.70;49.40
1468;DHT22;727;48.892;9.544;2024-01-10T11:51:53;10.50;49.70
1468;DHT22;727;48.892;9.544;2024-01-10T11:54:35;11.30;49.60
1468;DHT22;727;48.892;9.544;2024-01-10T11:57:03;11.90;48.60
1468;DHT22;727;48.892;9.544;2024-01-10T11:59:44;11.80;47.20
1468;DHT22;727;48.892;9.544;2024-01-10T12:02:11;12.50;47.50
1468;DHT22;727;48.892;9.544;2024-01-10T12:04:47;12.40;47.20
1468;DHT22;727;48.892;9.544;2024-01-10T12:07:15;11.70;47.10
1468;DHT22;727;48.892;9.544;2024-01-10T12:09:42;11.50;47.50
1468;DHT22;727;48.892;9.544;2024-01-10T12:12:10;11.70;48.10
1468;DHT22;727;48.892;9.544;2024-01-10T12:14:39;11.70;47.80
1468;DHT22;727;48.892;9.544;2024-01-10T12:17:07;11.90;47.90
1468;DHT22;727;48.892;9.544;2024-01-10T12:19:34;11.70;48.00
1468;DHT22;727;48.892;9.544;2024-01-10T12:22:02;12.10;47.60
1468;DHT22;727;48.892;9.544;2024-01-10T12:24:30;12.40;47.40
1468;DHT22;727;48.892;9.544;2024-01-10T12:26:58;12.00;47.00
1468;DHT22;727;48.892;9.544;2024-01-10T12:29:25;12.20;47.70
1468;DHT22;727;48.892;9.544;2024-01-10T12:31:53;12.90;46.80
1468;DHT22;727;48.892;9.544;2024-01-10T12:34:21;12.60;46.50
1468;DHT22;727;48.892;9.544;2024-01-10T12:36:48;12.70;46.50
1468;DHT22;727;48.892;9.544;2024-01-10T12:39:15;12.90;46.80
1468;DHT22;727;48.892;9.544;2024-01-10T12:41:42;12.20;46.50
1468;DHT22;727;48.892;9.544;2024-01-10T12:44:18;11.60;47.10
1468;DHT22;727;48.892;9.544;2024-01-10T12:46:51;11.20;48.30
1468;DHT22;727;48.892;9.544;2024-01-10T12:49:18;11.80;48.70
1468;DHT22;727;48.892;9.544;2024-01-10T12:51:50;12.10;47.80
1468;DHT22;727;48.892;9.544;2024-01-10T12:54:19;11.70;47.70
1468;DHT22;727;48.892;9.544;2024-01-10T12:56:46;12.10;47.70
1468;DHT22;727;48.892;9.544;2024-01-10T12:59:13;11.80;47.60
1468;DHT22;727;48.892;9.544;2024-01-10T13:01:40;11.70;48.00
1468;DHT22;727;48.892;9.544;2024-01-10T13:04:07;11.70;48.10
1468;DHT22;727;48.892;9.544;2024-01-10T13:06:37;11.40;47.90
1468;DHT22;727;48.892;9.544;2024-01-10T13:09:07;11.30;48.20
1468;DHT22;727;48.892;9.544;2024-01-10T13:11:35;11.40;48.80
1468;DHT22;727;48.892;9.544;2024-01-10T13:14:02;11.60;48.40
1468;DHT22;727;48.892;9.544;2024-01-10T13:16:29;11.70;48.30
1468;DHT22;727;48.892;9.544;2024-01-10T13:18:56;11.40;47.90
1468;DHT22;727;48.892;9.544;2024-01-10T13:21:24;11.40;48.50
1468;DHT22;727;48.892;9.544;2024-01-10T13:23:51;11.10;49.30
1468;DHT22;727;48.892;9.544;2024-01-10T13:26:19;11.50;48.90
1468;DHT22;727;48.892;9.544;2024-01-10T13:28:46;11.30;48.50
1468;DHT22;727;48.892;9.544;2024-01-10T13:31:14;10.90;49.30
1468;DHT22;727;48.892;9.544;2024-01-10T13:33:41;11.20;49.50
1468;DHT22;727;48.892;9.544;2024-01-10T13:36:08;10.80;49.60
1468;DHT22;727;48.892;9.544;2024-01-10T13:38:34;10.80;50.10
1468;DHT22;727;48.892;9.544;2024-01-10T13:41:01;10.90;49.80
1468;DHT22;727;48.892;9.544;2024-01-10T13:43:30;10.60;49.90
1468;DHT22;727;48.892;9.544;2024-01-10T13:45:57;10.70;50.20
1468;DHT22;727;48.892;9.544;2024-01-10T13:48:23;10.30;50.30
1468;DHT22;727;48.892;9.544;2024-01-10T13:50:50;10.50;50.60
1468;DHT22;727;48.892;9.544;2024-01-10T13:53:17;10.60;50.50
1468;DHT22;727;48.892;9.544;2024-01-10T13:55:44;10.20;50.70
1468;DHT22;727;48.892;9.544;2024-01-10T13:58:11;10.10;50.50
1468;DHT22;727;48.892;9.544;2024-01-10T14:00:40;9.80;52.00
1468;DHT22;727;48.892;9.544;2024-01-10T14:03:06;10.10;51.60
1468;DHT22;727;48.892;9.544;2024-01-10T14:05:33;9.70;53.00
1468;DHT22;727;48.892;9.544;2024-01-10T14:08:01;9.70;53.10
1468;DHT22;727;48.892;9.544;2024-01-10T14:10:28;9.50;53.20
1468;DHT22;727;48.892;9.544;2024-01-10T14:12:54;9.50;53.40
1468;DHT22;727;48.892;9.544;2024-01-10T14:15:21;9.60;53.30
1468;DHT22;727;48.892;9.544;2024-01-10T14:17:49;9.40;53.60
1468;DHT22;727;48.892;9.544;2024-01-10T14:20:16;9.40;53.90
1468;DHT22;727;48.892;9.544;2024-01-10T14:22:43;9.20;54.10
1468;DHT22;727;48.892;9.544;2024-01-10T14:25:10;8.20;55.20
1468;DHT22;727;48.892;9.544;2024-01-10T14:27:38;7.30;56.90
1468;DHT22;727;48.892;9.544;2024-01-10T14:30:06;6.30;58.50
1468;DHT22;727;48.892;9.544;2024-01-10T14:32:35;5.50;60.40
1468;DHT22;727;48.892;9.544;2024-01-10T14:35:03;4.90;62.60
1468;DHT22;727;48.892;9.544;2024-01-10T14:37:31;4.60;64.50
1468;DHT22;727;48.892;9.544;2024-01-10T14:40:02;4.40;65.30
1468;DHT22;727;48.892;9.544;2024-01-10T14:42:29;4.20;67.40
1468;DHT22;727;48.892;9.544;2024-01-10T14:44:56;4.00;67.90
1468;DHT22;727;48.892;9.544;2024-01-10T14:47:23;3.90;68.60
1468;DHT22;727;48.892;9.544;2024-01-10T14:49:50;3.80;69.40
1468;DHT22;727;48.892;9.544;2024-01-10T14:52:18;3.60;69.90
1468;DHT22;727;48.892;9.544;2024-01-10T14:54:46;3.50;71.00
1468;DHT22;727;48.892;9.544;2024-01-10T14:57:12;3.30;71.50
1468;DHT22;727;48.892;9.544;2024-01-10T14:59:40;3.20;72.20
1468;DHT22;727;48.892;9.544;2024-01-10T15:02:07;3.00;73.50
1468;DHT22;727;48.892;9.544;2024-01-10T15:04:37;2.90;74.70
1468;DHT22;727;48.892;9.544;2024-01-10T15:07:04;2.70;75.70
1468;DHT22;727;48.892;9.544;2024-01-10T15:09:33;2.60;76.60
1468;DHT22;727;48.892;9.544;2024-01-10T15:12:02;2.50;77.20
1468;DHT22;727;48.892;9.544;2024-01-10T15:14:31;2.30;77.90
1468;DHT22;727;48.892;9.544;2024-01-10T15:16:58;2.20;78.60
1468;DHT22;727;48.892;9.544;2024-01-10T15:19:26;2.10;79.60
1468;DHT22;727;48.892;9.544;2024-01-10T15:21:52;1.80;81.10
1468;DHT22;727;48.892;9.544;2024-01-10T15:24:19;1.70;82.20
1468;DHT22;727;48.892;9.544;2024-01-10T15:26:48;1.50;83.20
1468;DHT22;727;48.892;9.544;2024-01-10T15:29:16;1.30;84.10
1468;DHT22;727;48.892;9.544;2024-01-10T15:31:43;1.10;85.20
1468;DHT22;727;48.892;9.544;2024-01-10T15:34:10;1.00;86.20
1468;DHT22;727;48.892;9.544;2024-01-10T15:36:39;1.00;87.10
1468;DHT22;727;48.892;9.544;2024-01-10T15:39:06;0.80;88.10
1468;DHT22;727;48.892;9.544;2024-01-10T15:41:33;0.60;88.80
1468;DHT22;727;48.892;9.544;2024-01-10T15:44:01;0.50;89.90
1468;DHT22;727;48.892;9.544;2024-01-10T15:46:28;0.40;90.40
1468;DHT22;727;48.892;9.544;2024-01-10T15:48:55;0.30;90.90
1468;DHT22;727;48.892;9.544;2024-01-10T15:51:22;0.20;91.40
1468;DHT22;727;48.892;9.544;2024-01-10T15:53:49;0.10;91.80
1468;DHT22;727;48.892;9.544;2024-01-10T15:56:15;0.00;92.00
1468;DHT22;727;48.892;9.544;2024-01-10T15:58:43;0.00;92.20
1468;DHT22;727;48.892;9.544;2024-01-10T16:01:12;-0.10;92.50
1468;DHT22;727;48.892;9.544;2024-01-10T16:03:39;-0.20;92.90
1468;DHT22;727;48.892;9.544;2024-01-10T16:06:06;-0.30;93.40
1468;DHT22;727;48.892;9.544;2024-01-10T16:08:33;-0.40;94.00
1468;DHT22;727;48.892;9.544;2024-01-10T16:10:59;-0.40;94.90
1468;DHT22;727;48.892;9.544;2024-01-10T16:13:26;-0.50;95.50
1468;DHT22;727;48.892;9.544;2024-01-10T16:15:54;-0.60;96.00
1468;DHT22;727;48.892;9.544;2024-01-10T16:18:22;-0.70;96.50
1468;DHT22;727;48.892;9.544;2024-01-10T16:20:49;-0.70;97.10
1468;DHT22;727;48.892;9.544;2024-01-10T16:23:17;-0.80;97.40
1468;DHT22;727;48.892;9.544;2024-01-10T16:25:45;-0.80;97.70